Time;durP1;ratioP1;P1;durP2;ratioP2;P2;SDS_P1;SDS_P2;PMS_P1;PMS_P2;Temp;Humidity;BMP_temperature;BMP_pressure;BME280_temperature;BME280_humidity;BME280_pressure;Samples;Min_cycle;Max_cycle;Signal;HPM_P1;HPM_P2
2021/10/06 00:00:45;;;;;;;17.40;7.75;;;;;;;18.18;52.81;99855.17;2005480;87;28027;-62
2021/10/06 00:03:46;;;;;;;11.05;6.42;;;;;;;18.16;53.22;99858.51;2004477;88;28662;-60
2021/10/06 00:06:48;;;;;;;17.70;6.90;;;;;;;18.14;53.26;99854.56;1997959;88;31122;-62
2021/10/06 00:09:49;;;;;;;19.00;6.53;;;;;;;18.12;53.35;99857.05;2002858;87;33032;-60
2021/10/06 00:12:50;;;;;;;14.28;6.92;;;;;;;18.10;53.61;99866.70;1999105;87;29581;-61
2021/10/06 00:15:52;;;;;;;14.35;6.92;;;;;;;18.08;53.75;99876.81;2066740;84;27680;-60
2021/10/06 00:18:54;;;;;;;14.63;6.95;;;;;;;18.07;53.87;99871.87;2039483;85;29420;-61
2021/10/06 00:21:57;;;;;;;12.58;7.67;;;;;;;18.06;53.85;99866.59;2060671;85;31907;-61
2021/10/06 00:24:59;;;;;;;10.30;6.45;;;;;;;18.05;54.05;99869.79;2058302;85;33599;-64
2021/10/06 00:31:22;;;;;;;12.82;7.60;;;;;;;18.01;54.43;99862.94;2130144;82;27657;-60
2021/10/06 00:34:23;;;;;;;10.70;7.50;;;;;;;17.98;54.45;99877.23;2119259;83;28472;-60
2021/10/06 00:37:25;;;;;;;11.97;6.95;;;;;;;17.95;54.65;99875.63;2097886;84;31975;-60
2021/10/06 00:40:27;;;;;;;14.58;6.97;;;;;;;17.94;54.76;99868.49;2065267;85;33030;-60
2021/10/06 00:43:28;;;;;;;12.82;7.20;;;;;;;17.92;54.95;99865.06;2137497;82;29432;-60
2021/10/06 00:46:30;;;;;;;13.65;7.20;;;;;;;17.90;55.14;99868.39;2059741;85;27764;-60
2021/10/06 00:49:32;;;;;;;14.60;7.78;;;;;;;17.85;55.23;99872.03;2128786;82;29412;-61
2021/10/06 00:52:33;;;;;;;11.68;6.97;;;;;;;17.81;55.36;99880.89;2089933;83;31086;-61
2021/10/06 00:55:37;;;;;;;10.50;6.67;;;;;;;17.79;55.47;99891.52;2091825;84;33012;-61
2021/10/06 00:58:38;;;;;;;10.35;6.70;;;;;;;17.76;55.54;99900.78;2100689;83;29090;-60
2021/10/06 01:01:40;;;;;;;9.80;7.33;;;;;;;17.75;55.61;99900.41;2122330;82;27878;-60
2021/10/06 01:04:41;;;;;;;12.07;7.17;;;;;;;17.75;55.87;99897.20;2128443;82;28751;-60
2021/10/06 01:07:43;;;;;;;14.85;7.40;;;;;;;17.75;56.08;99899.06;2130306;82;32478;-61
2021/10/06 01:10:46;;;;;;;12.68;7.03;;;;;;;17.73;56.33;99903.23;2116881;82;34147;-60
2021/10/06 01:13:48;;;;;;;23.20;15.08;;;;;;;17.72;56.58;99905.58;2098585;83;29066;-60
2021/10/06 01:16:51;;;;;;;17.80;10.35;;;;;;;17.72;56.77;99912.35;2102003;83;27782;-61
2021/10/06 01:19:53;;;;;;;16.12;8.08;;;;;;;17.75;56.98;99912.09;2105556;83;28696;-60
2021/10/06 01:22:54;;;;;;;15.98;7.10;;;;;;;17.78;57.00;99923.19;2128162;82;31044;-61
2021/10/06 01:25:56;;;;;;;13.72;7.58;;;;;;;17.81;57.23;99914.77;2124044;83;33058;-61
2021/10/06 01:28:58;;;;;;;11.90;8.20;;;;;;;17.81;57.17;99908.50;2130639;82;29050;-62
2021/10/06 01:31:59;;;;;;;11.93;7.33;;;;;;;17.82;57.26;99912.93;2097558;82;27901;-61
2021/10/06 01:35:07;;;;;;;12.70;7.42;;;;;;;17.83;57.48;99907.37;2082010;84;29388;-62
2021/10/06 01:38:09;;;;;;;17.40;8.00;;;;;;;17.85;57.50;99911.31;2081700;84;31104;-61
2021/10/06 01:41:10;;;;;;;10.72;7.72;;;;;;;17.84;57.67;99906.38;2084632;83;33036;-62
2021/10/06 01:44:15;;;;;;;12.82;7.70;;;;;;;17.83;58.06;99904.66;2105958;83;28876;-63
2021/10/06 01:47:22;;;;;;;13.78;7.58;;;;;;;17.82;58.05;99905.64;2063673;84;27706;-62
2021/10/06 01:50:26;;;;;;;18.90;8.00;;;;;;;17.81;58.16;99912.56;2112031;82;28721;-62
2021/10/06 01:53:39;;;;;;;12.07;7.67;;;;;;;17.80;58.38;99908.98;2143060;81;31060;-63
2021/10/06 01:56:41;;;;;;;12.90;7.72;;;;;;;17.80;58.54;99906.27;2134759;82;33000;-63
2021/10/06 01:59:44;;;;;;;9.18;8.08;;;;;;;17.79;58.68;99918.09;2139979;81;29092;-62
2021/10/06 02:02:46;;;;;;;12.88;7.97;;;;;;;17.77;58.93;99916.89;2118545;81;27640;-63
2021/10/06 02:05:48;;;;;;;9.25;7.72;;;;;;;17.76;59.03;99925.16;2096193;83;28679;-64
2021/10/06 02:08:49;;;;;;;10.88;7.62;;;;;;;17.74;59.19;99933.41;2102577;83;31106;-63
2021/10/06 02:11:51;;;;;;;12.82;8.35;;;;;;;17.74;59.37;99923.08;2114981;83;32950;-63
2021/10/06 02:14:52;;;;;;;16.93;9.83;;;;;;;17.73;59.54;99921.36;2064250;84;29825;-62
2021/10/06 02:17:54;;;;;;;14.83;10.60;;;;;;;17.73;59.76;99930.84;2061466;85;27728;-62
2021/10/06 02:20:56;;;;;;;15.15;10.78;;;;;;;17.75;60.11;99935.13;2106784;83;28701;-65
2021/10/06 02:23:58;;;;;;;16.02;9.48;;;;;;;17.77;60.17;99932.30;2075493;85;31079;-65
2021/10/06 02:27:00;;;;;;;12.98;9.48;;;;;;;17.81;60.58;99931.02;2087427;84;34301;-61
2021/10/06 02:30:02;;;;;;;17.75;11.12;;;;;;;17.81;61.20;99936.95;2111338;82;29414;-62
2021/10/06 02:33:04;;;;;;;17.30;11.78;;;;;;;17.82;61.77;99946.29;2126151;82;27820;-63
2021/10/06 02:36:06;;;;;;;15.55;11.55;;;;;;;17.84;62.45;99947.02;2124634;83;28669;-62
2021/10/06 02:39:09;;;;;;;14.35;10.70;;;;;;;17.84;63.21;99954.31;2114946;83;31048;-64
2021/10/06 02:42:11;;;;;;;18.30;12.23;;;;;;;17.82;63.34;99951.71;2106319;83;33503;-63
2021/10/06 02:45:15;;;;;;;17.50;12.78;;;;;;;17.84;63.88;99958.38;2119760;83;29093;-62
2021/10/06 02:48:17;;;;;;;16.67;14.45;;;;;;;17.86;63.98;99952.33;2122259;83;27860;-62
2021/10/06 02:51:22;;;;;;;20.40;15.40;;;;;;;17.88;64.39;99947.61;2087032;82;28516;-63
2021/10/06 02:54:24;;;;;;;18.62;15.13;;;;;;;17.87;64.42;99941.86;2093027;84;31056;-62
2021/10/06 02:57:26;;;;;;;21.12;15.88;;;;;;;17.83;64.84;99944.46;2101716;84;33737;-62
2021/10/06 03:00:28;;;;;;;22.30;15.10;;;;;;;17.82;65.02;99950.87;2118898;83;29098;-63
2021/10/06 03:03:30;;;;;;;20.17;14.60;;;;;;;17.81;65.20;99959.47;2129445;82;27706;-63
2021/10/06 03:06:32;;;;;;;19.77;15.23;;;;;;;17.81;65.13;99966.76;2131277;82;28698;-62
2021/10/06 03:09:34;;;;;;;18.37;13.53;;;;;;;17.79;65.14;99972.80;2123712;82;31906;-62
2021/10/06 03:12:37;;;;;;;22.42;14.05;;;;;;;17.79;65.25;99978.22;2103382;83;33671;-64
2021/10/06 03:15:39;;;;;;;23.95;14.95;;;;;;;17.76;65.72;99980.70;2084486;84;29834;-62
2021/10/06 03:18:41;;;;;;;19.42;13.20;;;;;;;17.69;65.41;99979.50;2088489;83;28345;-62
2021/10/06 03:21:44;;;;;;;19.55;12.00;;;;;;;17.64;65.56;99974.48;2135209;82;28785;-64
2021/10/06 03:24:47;;;;;;;13.85;10.18;;;;;;;17.57;65.36;99986.33;2137963;81;31096;-63
2021/10/06 03:27:49;;;;;;;12.58;9.18;;;;;;;17.48;65.32;99999.78;2123972;82;32994;-63
2021/10/06 03:30:53;;;;;;;11.90;8.38;;;;;;;17.40;65.21;100008.55;2121440;83;28437;-61
2021/10/06 03:33:57;;;;;;;10.60;7.80;;;;;;;17.34;65.19;100021.23;2108812;83;27696;-61
2021/10/06 03:36:58;;;;;;;10.98;7.55;;;;;;;17.26;65.04;100025.92;2120627;83;29318;-62
2021/10/06 03:39:59;;;;;;;8.43;6.83;;;;;;;17.17;65.07;100035.66;2107865;83;31066;-62
2021/10/06 03:43:02;;;;;;;8.13;5.90;;;;;;;17.09;65.05;100048.97;2102911;84;33616;-64
2021/10/06 03:46:04;;;;;;;9.93;5.65;;;;;;;17.03;65.01;100048.98;2104627;84;29053;-62
2021/10/06 03:49:05;;;;;;;6.05;5.45;;;;;;;16.95;64.93;100050.95;2098786;83;28104;-61
2021/10/06 03:52:07;;;;;;;7.85;5.58;;;;;;;16.87;65.17;100056.08;2100752;84;29071;-62
2021/10/06 03:55:10;;;;;;;9.58;5.85;;;;;;;16.83;65.20;100061.36;2091581;84;31082;-63
2021/10/06 03:58:12;;;;;;;8.45;6.35;;;;;;;16.80;65.45;100065.18;2094583;84;33019;-60
2021/10/06 04:01:13;;;;;;;8.05;5.55;;;;;;;16.81;65.39;100070.96;2097500;83;29034;-61
2021/10/06 04:04:15;;;;;;;6.40;5.20;;;;;;;16.80;65.31;100065.18;2127697;82;27764;-60
2021/10/06 04:07:17;;;;;;;6.10;4.58;;;;;;;16.77;65.56;100076.75;2127684;82;29858;-61
2021/10/06 04:10:18;;;;;;;6.97;4.70;;;;;;;16.77;65.56;100076.75;2120048;82;31006;-63
2021/10/06 04:13:21;;;;;;;6.85;4.47;;;;;;;16.74;65.13;100079.19;2128146;82;34206;-61
2021/10/06 04:16:22;;;;;;;5.50;3.60;;;;;;;16.71;65.11;100083.00;2134065;82;29477;-61
2021/10/06 04:19:24;;;;;;;6.12;4.08;;;;;;;16.69;65.12;100081.41;2045419;85;28263;-60
2021/10/06 04:22:26;;;;;;;5.08;3.77;;;;;;;16.62;64.91;100093.20;2100740;83;28625;-60
2021/10/06 04:25:28;;;;;;;5.37;4.00;;;;;;;16.58;64.93;100093.55;2100638;84;31404;-63
2021/10/06 04:28:30;;;;;;;4.25;3.62;;;;;;;16.56;64.90;100099.94;2092266;84;33033;-62
2021/10/06 04:31:32;;;;;;;4.83;3.42;;;;;;;16.54;64.91;100105.10;2110574;82;29198;-63
2021/10/06 04:34:35;;;;;;;5.30;4.05;;;;;;;16.50;64.93;100099.55;2119116;83;27827;-61
2021/10/06 04:37:40;;;;;;;9.33;6.58;;;;;;;16.48;64.98;100100.16;2128779;82;29830;-61
2021/10/06 04:40:42;;;;;;;7.53;3.60;;;;;;;16.43;64.95;100101.03;2128724;82;31069;-61
2021/10/06 04:43:44;;;;;;;6.00;3.85;;;;;;;16.38;65.00;100100.89;2036559;84;33022;-61
2021/10/06 04:46:47;;;;;;;5.47;3.67;;;;;;;16.33;65.08;100096.82;2049687;85;29064;-61
2021/10/06 04:49:49;;;;;;;3.75;3.35;;;;;;;16.32;64.97;100109.46;2007290;87;28303;-60
2021/10/06 04:52:50;;;;;;;4.72;3.15;;;;;;;16.28;65.07;100121.98;2036952;85;29892;-61
2021/10/06 04:55:53;;;;;;;4.35;3.58;;;;;;;16.25;65.20;100125.30;2055695;85;31470;-61
2021/10/06 04:58:54;;;;;;;3.65;3.27;;;;;;;16.23;65.33;100131.30;2118188;83;33971;-63
2021/10/06 05:01:56;;;;;;;6.53;3.95;;;;;;;16.09;65.45;100120.69;2123509;82;29063;-61
2021/10/06 05:04:58;;;;;;;5.03;3.90;;;;;;;16.16;65.83;100146.75;2107161;83;28411;-60
2021/10/06 05:08:00;;;;;;;6.05;3.50;;;;;;;16.12;66.29;100148.83;2105043;83;29267;-61
2021/10/06 05:11:07;;;;;;;7.75;4.20;;;;;;;16.04;66.38;100156.16;2029760;86;30851;-64
2021/10/06 05:14:09;;;;;;;6.97;3.85;;;;;;;16.03;66.77;100160.34;2123763;82;33007;-64
2021/10/06 05:17:11;;;;;;;5.65;4.17;;;;;;;15.92;66.83;100151.19;2123470;82;29868;-62
2021/10/06 05:20:13;;;;;;;6.28;4.30;;;;;;;16.00;67.01;100171.38;2112224;82;27815;-61
2021/10/06 05:23:15;;;;;;;6.78;4.12;;;;;;;16.02;67.30;100173.48;2128173;82;29510;-62
2021/10/06 05:26:17;;;;;;;6.62;4.83;;;;;;;16.02;67.42;100183.78;2117115;82;31833;-61
2021/10/06 05:29:21;;;;;;;9.15;5.12;;;;;;;16.04;67.46;100194.50;2140748;82;34309;-61
2021/10/06 05:32:22;;;;;;;4.78;3.95;;;;;;;15.93;67.96;100176.37;2096391;83;30237;-59
2021/10/06 05:35:24;;;;;;;5.85;4.37;;;;;;;16.04;67.75;100198.05;2059416;84;27879;-61
2021/10/06 05:38:27;;;;;;;5.60;4.60;;;;;;;16.07;67.99;100194.25;2041266;85;28922;-60
2021/10/06 05:41:29;;;;;;;7.58;4.50;;;;;;;15.94;67.92;100173.55;2017000;86;32042;-59
2021/10/06 05:44:31;;;;;;;5.97;4.97;;;;;;;16.09;68.02;100195.88;2031501;86;33774;-59
2021/10/06 05:47:33;;;;;;;6.62;5.08;;;;;;;16.09;68.16;100197.23;2114739;82;29086;-59
2021/10/06 05:50:34;;;;;;;8.75;4.65;;;;;;;16.03;68.20;100199.53;2073535;84;27742;-61
2021/10/06 05:53:37;;;;;;;8.43;6.00;;;;;;;16.03;68.20;100199.53;2137905;82;28573;-59
2021/10/06 05:56:39;;;;;;;7.12;5.87;;;;;;;15.98;68.23;100203.05;2135300;82;31084;-60
2021/10/06 05:59:41;;;;;;;8.23;5.80;;;;;;;15.91;68.34;100206.19;2127219;82;33538;-62
2021/10/06 06:02:46;;;;;;;8.08;6.33;;;;;;;15.82;68.70;100216.78;2107016;84;28878;-60
2021/10/06 06:05:49;;;;;;;8.30;6.25;;;;;;;15.82;68.70;100216.78;2099042;84;27729;-60
2021/10/06 06:08:50;;;;;;;9.73;7.08;;;;;;;15.85;68.83;100221.52;2090072;84;29391;-60
2021/10/06 06:11:52;;;;;;;8.93;7.40;;;;;;;15.86;68.85;100235.88;2087236;84;30805;-60
2021/10/06 06:14:54;;;;;;;10.10;7.53;;;;;;;15.87;68.93;100238.48;2102558;83;35182;-60
2021/10/06 06:17:56;;;;;;;9.95;6.33;;;;;;;15.90;69.19;100242.80;2125585;82;30399;-61
2021/10/06 06:20:59;;;;;;;7.53;6.72;;;;;;;15.93;69.29;100246.12;2122079;82;27875;-60
2021/10/06 06:24:01;;;;;;;7.33;6.10;;;;;;;15.97;69.30;100250.80;2096859;84;29801;-60
2021/10/06 06:27:05;;;;;;;7.22;5.58;;;;;;;16.00;69.25;100264.09;2094331;84;31173;-59
2021/10/06 06:30:09;;;;;;;9.80;6.12;;;;;;;16.04;69.37;100266.95;2094863;84;33660;-59
2021/10/06 06:33:11;;;;;;;9.08;7.30;;;;;;;16.07;69.26;100273.97;2029710;86;29145;-61
2021/10/06 06:36:13;;;;;;;11.05;7.35;;;;;;;16.06;69.24;100282.58;2022113;86;27880;-60
2021/10/06 06:39:15;;;;;;;9.23;6.55;;;;;;;16.08;69.50;100289.20;2040379;86;28697;-60
2021/10/06 06:42:17;;;;;;;9.05;6.80;;;;;;;16.12;69.61;100291.22;2119442;82;31091;-60
2021/10/06 06:45:19;;;;;;;11.43;6.53;;;;;;;16.15;69.61;100303.13;2126122;83;34173;-59
2021/10/06 06:48:22;;;;;;;11.90;6.78;;;;;;;16.16;69.65;100304.86;2114304;83;29460;-60
2021/10/06 06:51:25;;;;;;;15.60;6.72;;;;;;;16.19;69.78;100308.23;2106776;83;28908;-60
2021/10/06 06:54:28;;;;;;;9.43;6.58;;;;;;;16.22;69.92;100304.42;2080951;84;29107;-60
2021/10/06 06:57:36;;;;;;;15.13;7.22;;;;;;;16.30;69.97;100305.20;2090839;83;31111;-61
2021/10/06 07:00:50;;;;;;;10.43;7.15;;;;;;;16.36;70.03;100306.12;2107554;82;33036;-60
2021/10/06 07:03:58;;;;;;;11.15;6.92;;;;;;;16.42;70.09;100308.85;2091418;83;29866;-61
2021/10/06 07:07:04;;;;;;;10.15;6.95;;;;;;;16.42;69.86;100288.58;2092164;83;27808;-61
2021/10/06 07:10:06;;;;;;;11.12;6.90;;;;;;;16.42;69.86;100288.58;2107944;83;32398;-60
2021/10/06 07:13:09;;;;;;;9.03;7.08;;;;;;;16.61;70.11;100311.03;2097406;83;31918;-60
2021/10/06 07:16:12;;;;;;;9.88;7.33;;;;;;;16.69;70.04;100294.61;2100874;83;33848;-60
2021/10/06 07:19:15;;;;;;;10.15;7.12;;;;;;;16.82;70.04;100299.95;2032577;86;30008;-61
2021/10/06 07:22:20;;;;;;;10.48;7.20;;;;;;;16.98;69.63;100302.88;2065771;84;27662;-60
2021/10/06 07:25:23;;;;;;;13.22;7.50;;;;;;;16.98;69.63;100302.88;2117237;83;28797;-63
2021/10/06 07:28:28;;;;;;;9.88;7.62;;;;;;;17.05;69.77;100305.46;2118758;83;31035;-61
2021/10/06 07:31:34;;;;;;;11.20;7.05;;;;;;;17.13;69.47;100306.22;2074413;85;32995;-60
2021/10/06 07:34:40;;;;;;;9.15;7.42;;;;;;;17.18;69.69;100305.39;2115023;83;29697;-61
2021/10/06 07:37:43;;;;;;;10.68;7.20;;;;;;;17.28;69.60;100317.25;2091930;83;28345;-60
2021/10/06 07:40:46;;;;;;;11.05;7.70;;;;;;;17.37;69.11;100319.73;2101283;84;28819;-61
2021/10/06 07:43:48;;;;;;;10.78;6.55;;;;;;;17.42;68.93;100316.66;2098618;83;31915;-60
2021/10/06 07:46:52;;;;;;;10.55;6.78;;;;;;;17.43;68.93;100312.97;2097294;83;33010;-62
2021/10/06 07:49:59;;;;;;;13.15;7.83;;;;;;;17.51;69.00;100310.50;2093185;84;29050;-60
2021/10/06 07:53:02;;;;;;;9.90;6.58;;;;;;;17.60;69.12;100316.56;2100843;83;27689;-61
2021/10/06 07:56:07;;;;;;;8.78;6.47;;;;;;;17.67;69.12;100323.70;2114344;83;28662;-59
2021/10/06 07:59:10;;;;;;;9.33;7.28;;;;;;;17.72;69.08;100333.67;2071732;85;32081;-60
2021/10/06 08:02:14;;;;;;;12.98;7.08;;;;;;;17.72;68.96;100325.54;2048038;85;33072;-59
2021/10/06 08:05:17;;;;;;;11.08;7.22;;;;;;;17.74;68.83;100332.21;2026053;86;29607;-60
2021/10/06 08:08:29;;;;;;;9.88;6.33;;;;;;;17.72;68.75;100326.89;2033617;86;27692;-60
2021/10/06 08:11:40;;;;;;;7.20;5.85;;;;;;;17.72;68.84;100328.25;2015847;86;28717;-60
2021/10/06 08:14:53;;;;;;;8.60;6.20;;;;;;;17.80;68.87;100329.50;2034780;85;27802;-61
2021/10/06 08:18:03;;;;;;;7.70;6.55;;;;;;;17.90;68.94;100334.54;2037640;85;27936;-60
2021/10/06 08:21:05;;;;;;;11.78;6.97;;;;;;;18.00;68.69;100335.58;2047246;86;29123;-60
2021/10/06 08:24:08;;;;;;;10.13;7.40;;;;;;;18.14;68.53;100339.86;2030607;86;27753;-61
2021/10/06 08:27:13;;;;;;;9.75;6.92;;;;;;;18.27;68.43;100348.38;2057432;84;28806;-60
2021/10/06 08:30:15;;;;;;;6.97;6.28;;;;;;;18.38;68.45;100346.49;2063199;84;31876;-60
2021/10/06 08:33:19;;;;;;;12.25;6.78;;;;;;;18.49;68.17;100352.39;2079169;84;32984;-60
2021/10/06 08:36:22;;;;;;;10.13;5.90;;;;;;;18.59;68.02;100357.92;2118110;83;29897;-61
2021/10/06 08:39:24;;;;;;;11.97;7.50;;;;;;;18.68;67.73;100363.09;2094343;83;28481;-60
2021/10/06 08:42:26;;;;;;;7.62;6.28;;;;;;;18.81;67.53;100364.30;2091848;83;29575;-60
2021/10/06 08:45:28;;;;;;;10.75;7.10;;;;;;;18.89;67.54;100371.80;2090435;84;31460;-59
2021/10/06 08:48:31;;;;;;;13.13;6.85;;;;;;;19.00;67.43;100375.00;2126439;83;34365;-60
2021/10/06 08:51:33;;;;;;;8.23;6.42;;;;;;;19.03;67.07;100378.31;2126660;82;29131;-59
2021/10/06 08:54:35;;;;;;;9.53;6.45;;;;;;;19.03;66.83;100374.75;2119263;83;28295;-63
2021/10/06 08:57:41;;;;;;;10.58;6.60;;;;;;;19.06;66.85;100381.25;2122205;82;29440;-61
2021/10/06 09:00:58;;;;;;;8.73;6.25;;;;;;;19.08;66.75;100390.14;2079785;83;31138;-59
2021/10/06 09:04:03;;;;;;;9.93;6.17;;;;;;;19.03;66.53;100394.60;2089109;84;33709;-60
2021/10/06 09:07:08;;;;;;;9.28;6.03;;;;;;;18.97;66.42;100391.91;2059392;84;27844;-61
2021/10/06 09:10:15;;;;;;;10.53;7.00;;;;;;;18.94;66.50;100394.00;2061397;84;28154;-61
2021/10/06 09:13:16;;;;;;;10.20;6.67;;;;;;;18.88;66.08;100401.28;2054582;85;28679;-61
2021/10/06 09:16:19;;;;;;;10.30;6.55;;;;;;;18.86;66.13;100398.71;2101690;83;31054;-61
2021/10/06 09:19:38;;;;;;;12.13;6.65;;;;;;;18.87;66.30;100409.06;2057022;85;32924;-60
2021/10/06 09:22:45;;;;;;;7.05;5.70;;;;;;;18.94;66.39;100400.31;2105126;83;30187;-62
2021/10/06 09:26:00;;;;;;;10.88;6.83;;;;;;;19.01;66.20;100406.59;2121790;82;27704;-59
2021/10/06 09:29:02;;;;;;;8.70;6.17;;;;;;;19.07;66.01;100414.20;2066570;83;28833;-61
2021/10/06 09:32:05;;;;;;;9.45;5.78;;;;;;;19.13;65.79;100418.62;2076588;84;32241;-60
2021/10/06 09:35:21;;;;;;;12.25;7.37;;;;;;;19.19;65.71;100421.83;2046457;84;32425;-60
2021/10/06 09:38:23;;;;;;;11.45;6.50;;;;;;;19.20;65.73;100428.47;2100270;83;29306;-59
2021/10/06 09:41:38;;;;;;;10.40;6.08;;;;;;;19.20;65.82;100418.12;2096316;83;27816;-60
2021/10/06 09:44:42;;;;;;;7.47;5.90;;;;;;;19.26;65.73;100419.81;2098935;83;28863;-62
2021/10/06 09:48:06;;;;;;;8.68;6.28;;;;;;;19.30;65.26;100420.92;2077971;83;31893;-60
2021/10/06 09:51:08;;;;;;;9.00;6.70;;;;;;;19.34;65.48;100426.47;2105961;83;33433;-61
2021/10/06 09:54:10;;;;;;;8.05;6.65;;;;;;;19.37;65.42;100433.86;2109518;83;29738;-60
2021/10/06 09:57:23;;;;;;;8.20;5.97;;;;;;;19.41;65.46;100438.52;2120219;81;27865;-60
2021/10/06 10:00:25;;;;;;;7.30;5.35;;;;;;;19.49;65.56;100431.07;2128110;82;28676;-61
2021/10/06 10:03:26;;;;;;;10.00;6.30;;;;;;;19.60;65.04;100431.04;2138044;82;30248;-60
2021/10/06 10:06:28;;;;;;;6.55;5.30;;;;;;;19.71;64.98;100428.25;2122883;81;33680;-63
2021/10/06 10:09:29;;;;;;;7.60;5.15;;;;;;;19.81;64.52;100434.23;2155418;81;28994;-60
2021/10/06 10:12:31;;;;;;;6.40;4.78;;;;;;;19.85;64.36;100432.50;2126696;82;27755;-60
2021/10/06 10:15:33;;;;;;;6.70;4.50;;;;;;;19.89;63.98;100431.76;2111742;81;29891;-61
2021/10/06 10:18:34;;;;;;;7.53;5.25;;;;;;;19.90;63.65;100437.56;2083045;84;31775;-61
2021/10/06 10:21:46;;;;;;;7.65;5.60;;;;;;;19.86;63.04;100445.58;2066514;83;34324;-59
2021/10/06 10:24:50;;;;;;;6.08;4.40;;;;;;;19.74;62.92;100448.38;2088104;84;29229;-59
2021/10/06 10:28:05;;;;;;;9.50;4.47;;;;;;;19.64;62.99;100451.50;2037950;85;27634;-59
2021/10/06 10:31:23;;;;;;;;;;;;;;;19.53;62.63;100449.70;2077813;84;28680;-60
2021/10/06 10:35:03;;;;;;;7.67;4.20;;;;;;;19.42;62.75;100453.35;2043042;84;31445;-60
2021/10/06 10:39:07;;;;;;;5.75;4.10;;;;;;;19.33;62.46;100454.63;1967169;88;33009;-60
2021/10/06 10:42:30;;;;;;;5.47;3.70;;;;;;;19.24;62.90;100458.47;1963473;89;29926;-59
2021/10/06 10:50:11;;;;;;;12.68;5.50;;;;;;;19.11;62.63;100469.48;2026364;86;28734;-60
2021/10/06 10:53:20;;;;;;;6.92;4.10;;;;;;;19.08;62.62;100479.27;2037386;86;32064;-60
2021/10/06 10:56:48;;;;;;;5.97;4.72;;;;;;;19.02;62.64;100472.98;2005905;86;33072;-59
2021/10/06 10:59:56;;;;;;;6.72;4.30;;;;;;;19.01;62.62;100474.47;2001262;87;29143;-59
2021/10/06 11:03:02;;;;;;;7.00;4.42;;;;;;;18.93;62.67;100472.36;1979345;87;27999;-60
2021/10/06 11:06:05;;;;;;;5.00;3.83;;;;;;;18.86;62.83;100472.00;1972939;89;28715;-59
2021/10/06 11:09:32;;;;;;;5.85;3.65;;;;;;;18.86;62.75;100472.00;1964028;89;31076;-59
2021/10/06 11:12:36;;;;;;;5.47;3.87;;;;;;;18.88;62.86;100465.08;1971135;89;33090;-60
2021/10/06 11:15:44;;;;;;;7.28;4.40;;;;;;;18.95;62.94;100471.74;2038433;85;29731;-60
2021/10/06 11:18:56;;;;;;;4.67;4.15;;;;;;;18.98;62.60;100469.66;2047589;84;27768;-60
2021/10/06 11:21:59;;;;;;;7.12;4.67;;;;;;;19.01;62.53;100467.69;2054826;85;28718;-59
2021/10/06 11:25:05;;;;;;;8.05;4.10;;;;;;;19.13;62.53;100463.43;2089285;83;31102;-60
2021/10/06 11:28:09;;;;;;;8.63;4.50;;;;;;;19.31;62.81;100460.17;2096578;84;33057;-59
2021/10/06 11:31:15;;;;;;;6.25;4.72;;;;;;;19.46;62.52;100470.25;2075812;84;29445;-59
2021/10/06 11:34:20;;;;;;;4.78;4.28;;;;;;;19.54;62.14;100470.45;2097267;83;27845;-59
2021/10/06 11:37:28;;;;;;;7.47;4.95;;;;;;;19.61;61.95;100467.22;2092550;84;28673;-59
2021/10/06 11:40:35;;;;;;;4.47;3.98;;;;;;;19.57;61.25;100477.50;2100412;84;31914;-59
2021/10/06 11:43:42;;;;;;;8.33;4.28;;;;;;;19.55;61.12;100483.04;2077177;84;33401;-61
2021/10/06 11:46:49;;;;;;;3.72;3.35;;;;;;;19.60;61.26;100478.59;2029869;86;29084;-59
2021/10/06 11:49:54;;;;;;;5.60;3.83;;;;;;;19.64;61.08;100478.67;2069464;84;27830;-59
2021/10/06 11:52:58;;;;;;;5.42;4.12;;;;;;;19.68;60.88;100477.43;2094780;84;30626;-60
2021/10/06 11:56:02;;;;;;;;;;;;;;;19.71;60.72;100479.02;2088986;84;31235;-60
2021/10/06 11:59:19;;;;;;;5.05;4.28;;;;;;;19.75;60.76;100484.56;2117527;82;29753;-60
2021/10/06 12:02:39;;;;;;;5.62;4.70;;;;;;;19.78;60.84;100482.06;2085513;84;29038;-60
2021/10/06 12:05:46;;;;;;;8.55;6.40;;;;;;;19.81;60.59;100477.25;2094558;84;27754;-61
2021/10/06 12:08:52;;;;;;;8.30;4.85;;;;;;;19.83;60.49;100477.11;2062693;84;28751;-60
2021/10/06 12:11:56;;;;;;;6.67;5.77;;;;;;;19.81;59.90;100477.73;2091595;84;31039;-60
2021/10/06 12:15:07;;;;;;;;;;;;;;;19.79;59.90;100479.23;2091407;84;32988;-60
2021/10/06 12:18:13;;;;;;;5.42;4.22;;;;;;;19.77;59.77;100481.22;2100832;82;27943;-59
2021/10/06 12:21:21;;;;;;;4.03;3.60;;;;;;;19.72;59.76;100478.02;2104366;82;27805;-60
2021/10/06 12:24:28;;;;;;;5.87;4.03;;;;;;;19.66;60.04;100480.77;2100493;84;29829;-59
2021/10/06 12:27:35;;;;;;;7.05;4.10;;;;;;;19.59;59.75;100486.38;2023325;86;31029;-60
2021/10/06 12:30:39;;;;;;;5.83;4.50;;;;;;;19.50;59.85;100484.42;2020110;86;33008;-61
2021/10/06 12:33:43;;;;;;;4.65;4.12;;;;;;;19.40;59.59;100490.66;2023178;86;29907;-59
2021/10/06 12:36:51;;;;;;;4.65;4.25;;;;;;;19.31;59.65;100492.77;2109201;83;27670;-59
2021/10/06 12:39:56;;;;;;;9.53;5.25;;;;;;;19.22;59.91;100497.11;2087138;83;29077;-60
2021/10/06 12:43:05;;;;;;;;;;;;;;;19.12;59.89;100492.94;2025169;85;31128;-60
2021/10/06 12:46:18;;;;;;;6.65;5.20;;;;;;;19.07;60.22;100496.55;2047349;85;33771;-60
2021/10/06 12:49:21;;;;;;;3.75;3.42;;;;;;;19.01;60.47;100501.11;2047275;85;29911;-60
2021/10/06 12:52:26;;;;;;;;;;;;;;;18.98;60.19;100514.94;2023923;86;27806;-60
2021/10/06 12:55:33;;;;;;;3.42;2.75;;;;;;;18.94;60.24;100509.38;2052559;85;28718;-60
2021/10/06 12:58:51;;;;;;;3.75;2.62;;;;;;;18.96;60.31;100514.20;2051037;85;31076;-60
2021/10/06 13:01:59;;;;;;;11.90;3.20;;;;;;;18.96;60.31;100515.55;1981348;88;33220;-61
2021/10/06 13:05:06;;;;;;;6.25;3.80;;;;;;;19.01;60.57;100519.27;1956104;89;29098;-60
2021/10/06 13:08:20;;;;;;;4.50;3.90;;;;;;;19.02;60.91;100519.13;1958549;89;27793;-60
2021/10/06 13:11:25;;;;;;;6.53;4.08;;;;;;;19.02;60.66;100512.86;1963701;87;28774;-60
2021/10/06 13:14:45;;;;;;;12.47;8.30;;;;;;;18.96;61.06;100519.63;1983074;88;32071;-60
2021/10/06 13:17:46;;;;;;;5.55;4.95;;;;;;;18.91;61.27;100521.33;1928474;89;28903;-60
2021/10/06 13:20:50;;;;;;;7.35;4.53;;;;;;;18.90;61.60;100520.96;1946345;89;29084;-60
2021/10/06 13:23:56;;;;;;;6.53;4.37;;;;;;;18.88;61.88;100527.00;1959217;89;28458;-61
2021/10/06 13:27:02;;;;;;;7.22;3.12;;;;;;;18.87;61.84;100533.42;1927712;90;29549;-59
2021/10/06 13:30:08;;;;;;;6.62;3.83;;;;;;;18.86;62.10;100543.05;1977132;87;32023;-59
2021/10/06 13:33:14;;;;;;;9.98;4.10;;;;;;;18.85;62.33;100534.55;1980081;88;33420;-59
2021/10/06 13:36:21;;;;;;;5.55;3.47;;;;;;;18.81;62.53;100536.14;1989008;87;28375;-68
2021/10/06 13:42:28;;;;;;;7.42;3.67;;;;;;;18.74;62.70;100548.50;2084853;81;27677;-65
2021/10/06 13:46:10;;;;;;;5.15;3.17;;;;;;;18.67;62.81;100552.20;2103292;82;31043;-67
2021/10/06 13:48:49;;;;;;;6.37;2.80;;;;;;;18.59;62.84;100549.73;2026484;83;28830;-63
2021/10/06 13:51:51;;;;;;;3.27;2.92;;;;;;;18.47;62.60;100556.48;2099980;82;29074;-64
2021/10/06 13:54:56;;;;;;;4.30;2.98;;;;;;;18.44;62.93;100557.22;2092364;82;27651;-65
2021/10/06 13:58:00;;;;;;;8.05;5.47;;;;;;;18.33;63.37;100555.34;2066353;83;29488;-65
2021/10/06 14:01:06;;;;;;;4.55;3.33;;;;;;;18.21;63.52;100563.47;2078073;83;31075;-61
2021/10/06 14:04:32;;;;;;;5.58;3.05;;;;;;;18.03;63.48;100563.06;2068943;84;33006;-64
2021/10/06 14:07:42;;;;;;;8.10;3.22;;;;;;;17.80;63.53;100563.41;2067048;83;28179;-64
2021/10/06 14:10:45;;;;;;;9.73;3.30;;;;;;;17.59;63.99;100574.91;2121896;81;27781;-64
2021/10/06 14:13:49;;;;;;;5.00;3.35;;;;;;;17.45;64.22;100573.72;2131955;80;28659;-65
2021/10/06 14:16:52;;;;;;;9.83;3.30;;;;;;;17.34;64.61;100579.05;2126314;80;31120;-65
2021/10/06 14:19:54;;;;;;;6.50;2.92;;;;;;;17.23;64.68;100582.54;2138740;80;32387;-62
2021/10/06 14:22:57;;;;;;;5.62;3.70;;;;;;;17.18;64.95;100584.73;2123382;81;29846;-64
2021/10/06 14:26:01;;;;;;;7.37;3.40;;;;;;;16.98;65.30;100588.40;2122541;80;28394;-63
2021/10/06 14:29:04;;;;;;;4.45;3.17;;;;;;;16.98;65.30;100588.40;2129222;81;28548;-64